sensor_id;sensor_type;location;lat;lon;timestamp;temperature;humidity
17687;DHT22;8962;52.538;13.266;2024-01-11T00:02:18;-6.20;99.90
17687;DHT22;8962;52.538;13.266;2024-01-11T00:04:46;-6.20;99.90
17687;DHT22;8962;52.538;13.266;2024-01-11T00:07:14;-6.10;99.90
17687;DHT22;8962;52.538;13.266;2024-01-11T00:09:42;-6.10;99.90
17687;DHT22;8962;52.538;13.266;2024-01-11T00:12:09;-6.20;99.90
17687;DHT22;8962;52.538;13.266;2024-01-11T00:14:37;-6.20;99.90
17687;DHT22;8962;52.538;13.266;2024-01-11T00:17:04;-6.30;99.90
17687;DHT22;8962;52.538;13.266;2024-01-11T00:19:31;-6.30;99.90
17687;DHT22;8962;52.538;13.266;2024-01-11T00:22:00;-6.20;99.90
17687;DHT22;8962;52.538;13.266;2024-01-11T00:24:27;-6.20;99.90
17687;DHT22;8962;52.538;13.266;2024-01-11T00:26:54;-6.30;99.90
17687;DHT22;8962;52.538;13.266;2024-01-11T00:29:22;-6.30;99.90
17687;DHT22;8962;52.538;13.266;2024-01-11T00:31:49;-6.20;99.90
17687;DHT22;8962;52.538;13.266;2024-01-11T00:34:16;-6.20;99.90
17687;DHT22;8962;52.538;13.266;2024-01-11T00:36:43;-6.20;99.90
17687;DHT22;8962;52.538;13.266;2024-01-11T00:39:13;-6.20;99.90
17687;DHT22;8962;52.538;13.266;2024-01-11T00:41:40;-6.20;99.90
17687;DHT22;8962;52.538;13.266;2024-01-11T00:44:07;-6.30;99.90
17687;DHT22;8962;52.538;13.266;2024-01-11T00:46:35;-6.20;99.90
17687;DHT22;8962;52.538;13.266;2024-01-11T00:49:04;-6.20;99.90
17687;DHT22;8962;52.538;13.266;2024-01-11T00:51:31;-6.20;99.90
17687;DHT22;8962;52.538;13.266;2024-01-11T00:53:58;-6.20;99.90
17687;DHT22;8962;52.538;13.266;2024-01-11T00:56:27;-6.20;99.90
17687;DHT22;8962;52.538;13.266;2024-01-11T00:58:54;-6.20;99.90
17687;DHT22;8962;52.538;13.266;2024-01-11T01:01:21;-6.30;99.90
17687;DHT22;8962;52.538;13.266;2024-01-11T01:03:48;-6.30;99.90
17687;DHT22;8962;52.538;13.266;2024-01-11T01:06:15;-6.20;99.90
17687;DHT22;8962;52.538;13.266;2024-01-11T01:08:42;-6.10;99.90
17687;DHT22;8962;52.538;13.266;2024-01-11T01:11:10;-6.10;99.90
17687;DHT22;8962;52.538;13.266;2024-01-11T01:13:39;-6.10;99.90
17687;DHT22;8962;52.538;13.266;2024-01-11T01:16:08;-6.10;99.90
17687;DHT22;8962;52.538;13.266;2024-01-11T01:18:35;-6.10;99.90
17687;DHT22;8962;52.538;13.266;2024-01-11T01:21:02;-6.10;99.90
17687;DHT22;8962;52.538;13.266;2024-01-11T01:23:32;-6.00;99.90
17687;DHT22;8962;52.538;13.266;2024-01-11T01:25:59;-5.90;99.90
17687;DHT22;8962;52.538;13.266;2024-01-11T01:28:26;-5.80;99.90
17687;DHT22;8962;52.538;13.266;2024-01-11T01:30:57;-5.80;99.90
17687;DHT22;8962;52.538;13.266;2024-01-11T01:33:24;-5.80;99.90
17687;DHT22;8962;52.538;13.266;2024-01-11T01:35:51;-5.80;99.90
17687;DHT22;8962;52.538;13.266;2024-01-11T01:38:18;-5.80;99.90
17687;DHT22;8962;52.538;13.266;2024-01-11T01:40:45;-5.70;99.90
17687;DHT22;8962;52.538;13.266;2024-01-11T01:43:13;-5.80;99.90
17687;DHT22;8962;52.538;13.266;2024-01-11T01:45:40;-5.80;99.90
17687;DHT22;8962;52.538;13.266;2024-01-11T01:48:11;-5.80;99.90
17687;DHT22;8962;52.538;13.266;2024-01-11T01:50:38;-5.80;99.90
17687;DHT22;8962;52.538;13.266;2024-01-11T01:53:05;-5.80;99.90
17687;DHT22;8962;52.538;13.266;2024-01-11T01:55:33;-5.90;99.90
17687;DHT22;8962;52.538;13.266;2024-01-11T01:58:01;-5.90;99.90
17687;DHT22;8962;52.538;13.266;2024-01-11T02:00:30;-6.00;99.90
17687;DHT22;8962;52.538;13.266;2024-01-11T02:02:58;-6.10;99.90
17687;DHT22;8962;52.538;13.266;2024-01-11T02:05:27;-6.10;99.90
17687;DHT22;8962;52.538;13.266;2024-01-11T02:07:54;-6.10;99.90
17687;DHT22;8962;52.538;13.266;2024-01-11T02:10:23;-6.10;99.90
17687;DHT22;8962;52.538;13.266;2024-01-11T02:12:51;-6.10;99.90
17687;DHT22;8962;52.538;13.266;2024-01-11T02:15:18;-6.10;99.90
17687;DHT22;8962;52.538;13.266;2024-01-11T02:17:45;-6.00;99.90
17687;DHT22;8962;52.538;13.266;2024-01-11T02:20:13;-6.10;99.90
17687;DHT22;8962;52.538;13.266;2024-01-11T02:22:46;-6.00;99.90
17687;DHT22;8962;52.538;13.266;2024-01-11T02:25:15;-6.00;99.90
17687;DHT22;8962;52.538;13.266;2024-01-11T02:27:46;-6.10;99.90
17687;DHT22;8962;52.538;13.266;2024-01-11T02:30:14;-6.20;99.90
17687;DHT22;8962;52.538;13.266;2024-01-11T02:32:42;-6.20;99.90
17687;DHT22;8962;52.538;13.266;2024-01-11T02:35:10;-6.30;99.90
17687;DHT22;8962;52.538;13.266;2024-01-11T02:37:37;-6.40;99.90
17687;DHT22;8962;52.538;13.266;2024-01-11T02:40:07;-6.30;99.90
17687;DHT22;8962;52.538;13.266;2024-01-11T02:42:36;-6.40;99.90
17687;DHT22;8962;52.538;13.266;2024-01-11T02:45:04;-6.40;99.90
17687;DHT22;8962;52.538;13.266;2024-01-11T02:47:32;-6.40;99.90
17687;DHT22;8962;52.538;13.266;2024-01-11T02:49:59;-6.40;99.90
17687;DHT22;8962;52.538;13.266;2024-01-11T02:52:26;-6.30;99.90
17687;DHT22;8962;52.538;13.266;2024-01-11T02:54:54;-6.20;99.90
17687;DHT22;8962;52.538;13.266;2024-01-11T02:57:22;-6.30;99.90
17687;DHT22;8962;52.538;13.266;2024-01-11T02:59:51;-6.20;99.90
17687;DHT22;8962;52.538;13.266;2024-01-11T03:02:18;-6.20;99.90
17687;DHT22;8962;52.538;13.266;2024-01-11T03:04:45;-6.10;99.90
17687;DHT22;8962;52.538;13.266;2024-01-11T03:07:12;-6.10;99.90
17687;DHT22;8962;52.538;13.266;2024-01-11T03:09:40;-6.10;99.90
17687;DHT22;8962;52.538;13.266;2024-01-11T03:12:07;-6.10;99.90
17687;DHT22;8962;52.538;13.266;2024-01-11T03:14:34;-6.20;99.90
17687;DHT22;8962;52.538;13.266;2024-01-11T03:17:03;-6.20;99.90
17687;DHT22;8962;52.538;13.266;2024-01-11T03:19:30;-6.10;99.90
17687;DHT22;8962;52.538;13.266;2024-01-11T03:21:58;-6.20;99.90
17687;DHT22;8962;52.538;13.266;2024-01-11T03:24:28;-6.10;99.90
17687;DHT22;8962;52.538;13.266;2024-01-11T03:26:55;-6.00;99.90
17687;DHT22;8962;52.538;13.266;2024-01-11T03:29:23;-6.00;99.90
17687;DHT22;8962;52.538;13.266;2024-01-11T03:31:50;-5.90;99.90
17687;DHT22;8962;52.538;13.266;2024-01-11T03:34:18;-5.90;99.90
17687;DHT22;8962;52.538;13.266;2024-01-11T03:36:45;-5.80;99.90
17687;DHT22;8962;52.538;13.266;2024-01-11T03:39:12;-5.70;99.90
17687;DHT22;8962;52.538;13.266;2024-01-11T03:41:43;-5.70;99.90
17687;DHT22;8962;52.538;13.266;2024-01-11T03:44:11;-5.60;99.90
17687;DHT22;8962;52.538;13.266;2024-01-11T03:46:38;-5.50;99.90
17687;DHT22;8962;52.538;13.266;2024-01-11T03:49:05;-5.40;99.90
17687;DHT22;8962;52.538;13.266;2024-01-11T03:51:35;-5.40;99.90
17687;DHT22;8962;52.538;13.266;2024-01-11T03:54:02;-5.30;99.90
17687;DHT22;8962;52.538;13.266;2024-01-11T03:56:30;-5.20;99.90
17687;DHT22;8962;52.538;13.266;2024-01-11T03:58:57;-5.10;99.90
17687;DHT22;8962;52.538;13.266;2024-01-11T04:01:24;-5.00;99.90
17687;DHT22;8962;52.538;13.266;2024-01-11T04:03:52;-5.00;99.90
17687;DHT22;8962;52.538;13.266;2024-01-11T04:06:20;-5.00;99.90
17687;DHT22;8962;52.538;13.266;2024-01-11T04:08:49;-5.00;99.90
17687;DHT22;8962;52.538;13.266;2024-01-11T04:11:17;-5.00;99.90
17687;DHT22;8962;52.538;13.266;2024-01-11T04:13:44;-4.90;99.90
17687;DHT22;8962;52.538;13.266;2024-01-11T04:16:11;-4.90;99.90
17687;DHT22;8962;52.538;13.266;2024-01-11T04:18:39;-4.90;99.90
17687;DHT22;8962;52.538;13.266;2024-01-11T04:21:06;-4.80;99.90
17687;DHT22;8962;52.538;13.266;2024-01-11T04:23:33;-4.80;99.90
17687;DHT22;8962;52.538;13.266;2024-01-11T04:26:02;-4.80;99.90
17687;DHT22;8962;52.538;13.266;2024-01-11T04:28:29;-4.80;99.90
17687;DHT22;8962;52.538;13.266;2024-01-11T04:30:56;-4.70;99.90
17687;DHT22;8962;52.538;13.266;2024-01-11T04:33:23;-4.70;99.90
17687;DHT22;8962;52.538;13.266;2024-01-11T04:35:50;-4.70;99.90
17687;DHT22;8962;52.538;13.266;2024-01-11T04:38:17;-4.60;99.90
17687;DHT22;8962;52.538;13.266;2024-01-11T04:40:44;-4.60;99.90
17687;DHT22;8962;52.538;13.266;2024-01-11T04:43:13;-4.60;99.90
17687;DHT22;8962;52.538;13.266;2024-01-11T04:45:40;-4.60;99.90
17687;DHT22;8962;52.538;13.266;2024-01-11T04:48:07;-4.50;99.90
17687;DHT22;8962;52.538;13.266;2024-01-11T04:50:34;-4.40;99.90
17687;DHT22;8962;52.538;13.266;2024-01-11T04:53:02;-4.40;99.90
17687;DHT22;8962;52.538;13.266;2024-01-11T04:55:29;-4.40;99.90
17687;DHT22;8962;52.538;13.266;2024-01-11T04:57:56;-4.30;99.90
17687;DHT22;8962;52.538;13.266;2024-01-11T05:00:24;-4.30;99.90
17687;DHT22;8962;52.538;13.266;2024-01-11T05:02:51;-4.20;99.90
17687;DHT22;8962;52.538;13.266;2024-01-11T05:05:18;-4.10;99.90
17687;DHT22;8962;52.538;13.266;2024-01-11T05:07:45;-4.10;99.90
17687;DHT22;8962;52.538;13.266;2024-01-11T05:10:12;-4.00;99.90
17687;DHT22;8962;52.538;13.266;2024-01-11T05:12:40;-4.00;99.90
17687;DHT22;8962;52.538;13.266;2024-01-11T05:15:07;-4.00;99.90
17687;DHT22;8962;52.538;13.266;2024-01-11T05:17:36;-3.90;99.90
17687;DHT22;8962;52.538;13.266;2024-01-11T05:20:03;-3.90;99.90
17687;DHT22;8962;52.538;13.266;2024-01-11T05:22:32;-3.90;99.90
17687;DHT22;8962;52.538;13.266;2024-01-11T05:24:59;-3.90;99.90
17687;DHT22;8962;52.538;13.266;2024-01-11T05:27:27;-3.90;99.90
17687;DHT22;8962;52.538;13.266;2024-01-11T05:29:54;-3.90;99.90
17687;DHT22;8962;52.538;13.266;2024-01-11T05:32:21;-3.80;99.90
17687;DHT22;8962;52.538;13.266;2024-01-11T05:34:50;-3.80;99.90
17687;DHT22;8962;52.538;13.266;2024-01-11T05:37:17;-3.80;99.90
17687;DHT22;8962;52.538;13.266;2024-01-11T05:39:46;-3.70;99.90
17687;DHT22;8962;52.538;13.266;2024-01-11T05:42:13;-3.70;99.90
17687;DHT22;8962;52.538;13.266;2024-01-11T05:44:40;-3.70;99.90
17687;DHT22;8962;52.538;13.266;2024-01-11T05:47:07;-3.70;99.90
17687;DHT22;8962;52.538;13.266;2024-01-11T05:49:35;-3.70;99.90
17687;DHT22;8962;52.538;13.266;2024-01-11T05:52:04;-3.70;99.90
17687;DHT22;8962;52.538;13.266;2024-01-11T05:54:31;-3.70;99.90
17687;DHT22;8962;52.538;13.266;2024-01-11T05:56:58;-3.60;99.90
17687;DHT22;8962;52.538;13.266;2024-01-11T05:59:25;-3.50;99.90
17687;DHT22;8962;52.538;13.266;2024-01-11T06:01:52;-3.50;99.90
17687;DHT22;8962;52.538;13.266;2024-01-11T06:04:20;-3.50;99.90
17687;DHT22;8962;52.538;13.266;2024-01-11T06:06:47;-3.50;99.90
17687;DHT22;8962;52.538;13.266;2024-01-11T06:09:15;-3.50;99.90
17687;DHT22;8962;52.538;13.266;2024-01-11T06:11:42;-3.50;99.90
17687;DHT22;8962;52.538;13.266;2024-01-11T06:14:09;-3.40;99.90
17687;DHT22;8962;52.538;13.266;2024-01-11T06:16:36;-3.40;99.90
17687;DHT22;8962;52.538;13.266;2024-01-11T06:19:03;-3.40;99.90
17687;DHT22;8962;52.538;13.266;2024-01-11T06:21:33;-3.40;99.90
17687;DHT22;8962;52.538;13.266;2024-01-11T06:24:00;-3.30;99.90
17687;DHT22;8962;52.538;13.266;2024-01-11T06:26:28;-3.30;99.90
17687;DHT22;8962;52.538;13.266;2024-01-11T06:28:55;-3.30;99.90
17687;DHT22;8962;52.538;13.266;2024-01-11T06:31:23;-3.20;99.90
17687;DHT22;8962;52.538;13.266;2024-01-11T06:33:50;-3.20;99.90
17687;DHT22;8962;52.538;13.266;2024-01-11T06:36:17;-3.20;99.90
17687;DHT22;8962;52.538;13.266;2024-01-11T06:38:44;-3.10;99.90
17687;DHT22;8962;52.538;13.266;2024-01-11T06:41:11;-3.10;99.90
17687;DHT22;8962;52.538;13.266;2024-01-11T06:43:58;-3.00;99.90
17687;DHT22;8962;52.538;13.266;2024-01-11T06:46:25;-3.00;99.90
17687;DHT22;8962;52.538;13.266;2024-01-11T06:48:53;-3.00;99.90
17687;DHT22;8962;52.538;13.266;2024-01-11T06:51:21;-3.00;99.90
17687;DHT22;8962;52.538;13.266;2024-01-11T06:53:49;-2.90;99.90
17687;DHT22;8962;52.538;13.266;2024-01-11T06:56:17;-2.90;99.90
17687;DHT22;8962;52.538;13.266;2024-01-11T06:58:45;-2.90;99.90
17687;DHT22;8962;52.538;13.266;2024-01-11T07:01:13;-2.90;99.90
17687;DHT22;8962;52.538;13.266;2024-01-11T07:03:40;-2.90;99.90
17687;DHT22;8962;52.538;13.266;2024-01-11T07:06:07;-2.80;99.90
17687;DHT22;8962;52.538;13.266;2024-01-11T07:08:35;-2.80;99.90
17687;DHT22;8962;52.538;13.266;2024-01-11T07:11:02;-2.80;99.90
17687;DHT22;8962;52.538;13.266;2024-01-11T07:13:30;-2.80;99.90
17687;DHT22;8962;52.538;13.266;2024-01-11T07:15:57;-2.80;99.90
17687;DHT22;8962;52.538;13.266;2024-01-11T07:18:26;-2.80;99.90
17687;DHT22;8962;52.538;13.266;2024-01-11T07:20:55;-2.90;99.90
17687;DHT22;8962;52.538;13.266;2024-01-11T07:23:22;-2.90;99.90
17687;DHT22;8962;52.538;13.266;2024-01-11T07:25:50;-2.90;99.90
17687;DHT22;8962;52.538;13.266;2024-01-11T07:28:17;-2.90;99.90
17687;DHT22;8962;52.538;13.266;2024-01-11T07:30:45;-2.90;99.90
17687;DHT22;8962;52.538;13.266;2024-01-11T07:33:13;-2.90;99.90
17687;DHT22;8962;52.538;13.266;2024-01-11T07:35:41;-2.80;99.90
17687;DHT22;8962;52.538;13.266;2024-01-11T07:38:11;-2.80;99.90
17687;DHT22;8962;52.538;13.266;2024-01-11T07:40:38;-2.80;99.90
17687;DHT22;8962;52.538;13.266;2024-01-11T07:43:05;-2.80;99.90
17687;DHT22;8962;52.538;13.266;2024-01-11T07:45:32;-2.90;99.90
17687;DHT22;8962;52.538;13.266;2024-01-11T07:47:59;-2.90;99.90
17687;DHT22;8962;52.538;13.266;2024-01-11T07:50:29;-2.90;99.90
17687;DHT22;8962;52.538;13.266;2024-01-11T07:52:58;-2.70;99.90
17687;DHT22;8962;52.538;13.266;2024-01-11T07:55:25;-2.60;99.90
17687;DHT22;8962;52.538;13.266;2024-01-11T07:57:52;-2.60;99.90
17687;DHT22;8962;52.538;13.266;2024-01-11T08:00:19;-2.70;99.90
17687;DHT22;8962;52.538;13.266;2024-01-11T08:02:46;-2.50;99.90
17687;DHT22;8962;52.538;13.266;2024-01-11T08:05:15;-2.50;99.90
17687;DHT22;8962;52.538;13.266;2024-01-11T08:07:42;-2.70;99.90
17687;DHT22;8962;52.538;13.266;2024-01-11T08:10:12;-2.60;99.90
17687;DHT22;8962;52.538;13.266;2024-01-11T08:12:39;-2.40;99.90
17687;DHT22;8962;52.538;13.266;2024-01-11T08:15:06;-2.40;99.90
17687;DHT22;8962;52.538;13.266;2024-01-11T08:17:36;-2.50;99.90
17687;DHT22;8962;52.538;13.266;2024-01-11T08:20:04;-2.60;99.90
17687;DHT22;8962;52.538;13.266;2024-01-11T08:22:33;-2.50;99.90
17687;DHT22;8962;52.538;13.266;2024-01-11T08:25:02;-2.40;99.90
17687;DHT22;8962;52.538;13.266;2024-01-11T08:27:31;-2.50;99.90
17687;DHT22;8962;52.538;13.266;2024-01-11T08:29:58;-2.40;99.90
17687;DHT22;8962;52.538;13.266;2024-01-11T08:32:27;-2.30;99.90
17687;DHT22;8962;52.538;13.266;2024-01-11T08:34:56;-2.40;99.90
17687;DHT22;8962;52.538;13.266;2024-01-11T08:37:23;-2.40;99.90
17687;DHT22;8962;52.538;13.266;2024-01-11T08:39:50;-2.40;99.90
17687;DHT22;8962;52.538;13.266;2024-01-11T08:42:18;-2.40;99.90
17687;DHT22;8962;52.538;13.266;2024-01-11T08:44:46;-2.30;99.90
17687;DHT22;8962;52.538;13.266;2024-01-11T08:47:14;-2.30;99.90
17687;DHT22;8962;52.538;13.266;2024-01-11T08:49:41;-2.40;99.90
17687;DHT22;8962;52.538;13.266;2024-01-11T08:52:09;-2.20;99.90
17687;DHT22;8962;52.538;13.266;2024-01-11T08:54:36;-2.20;99.90
17687;DHT22;8962;52.538;13.266;2024-01-11T08:57:03;-2.00;99.90
17687;DHT22;8962;52.538;13.266;2024-01-11T08:59:30;-1.90;99.90
17687;DHT22;8962;52.538;13.266;2024-01-11T09:01:59;-2.00;99.90
17687;DHT22;8962;52.538;13.266;2024-01-11T09:04:26;-1.90;99.90
17687;DHT22;8962;52.538;13.266;2024-01-11T09:06:55;-1.80;99.90
17687;DHT22;8962;52.538;13.266;2024-01-11T09:09:23;-1.50;99.90
17687;DHT22;8962;52.538;13.266;2024-01-11T09:11:50;-1.50;99.90
17687;DHT22;8962;52.538;13.266;2024-01-11T09:14:17;-1.50;99.90
17687;DHT22;8962;52.538;13.266;2024-01-11T09:16:44;-1.30;99.90
17687;DHT22;8962;52.538;13.266;2024-01-11T09:19:16;-1.40;99.90
17687;DHT22;8962;52.538;13.266;2024-01-11T09:21:43;-1.50;99.90
17687;DHT22;8962;52.538;13.266;2024-01-11T09:24:10;-1.50;99.90
17687;DHT22;8962;52.538;13.266;2024-01-11T09:26:37;-1.60;99.90
17687;DHT22;8962;52.538;13.266;2024-01-11T09:29:04;-1.60;99.90
17687;DHT22;8962;52.538;13.266;2024-01-11T09:31:32;-1.40;99.90
17687;DHT22;8962;52.538;13.266;2024-01-11T09:33:59;-1.50;99.90
17687;DHT22;8962;52.538;13.266;2024-01-11T09:36:28;-1.70;99.90
17687;DHT22;8962;52.538;13.266;2024-01-11T09:38:55;-1.70;99.90
17687;DHT22;8962;52.538;13.266;2024-01-11T09:41:22;-1.70;99.90
17687;DHT22;8962;52.538;13.266;2024-01-11T09:43:52;-1.80;99.90
17687;DHT22;8962;52.538;13.266;2024-01-11T09:46:21;-1.80;99.90
17687;DHT22;8962;52.538;13.266;2024-01-11T09:48:49;-1.90;99.90
17687;DHT22;8962;52.538;13.266;2024-01-11T09:51:17;-1.90;99.90
17687;DHT22;8962;52.538;13.266;2024-01-11T09:53:49;-1.90;99.90
17687;DHT22;8962;52.538;13.266;2024-01-11T09:56:19;-1.90;99.90
17687;DHT22;8962;52.538;13.266;2024-01-11T09:58:47;-1.80;99.90
17687;DHT22;8962;52.538;13.266;2024-01-11T10:01:16;-1.80;99.90
17687;DHT22;8962;52.538;13.266;2024-01-11T10:03:44;-1.90;99.90
17687;DHT22;8962;52.538;13.266;2024-01-11T10:06:12;-1.90;99.90
17687;DHT22;8962;52.538;13.266;2024-01-11T10:08:40;-1.80;99.90
17687;DHT22;8962;52.538;13.266;2024-01-11T10:11:09;-1.90;99.90
17687;DHT22;8962;52.538;13.266;2024-01-11T10:13:37;-1.90;99.90
17687;DHT22;8962;52.538;13.266;2024-01-11T10:16:09;-1.80;99.90
17687;DHT22;8962;52.538;13.266;2024-01-11T10:18:39;-1.80;99.90
17687;DHT22;8962;52.538;13.266;2024-01-11T10:21:07;-1.70;99.90
17687;DHT22;8962;52.538;13.266;2024-01-11T10:23:35;-1.60;99.90
17687;DHT22;8962;52.538;13.266;2024-01-11T10:26:03;-1.60;99.90
17687;DHT22;8962;52.538;13.266;2024-01-11T10:28:31;-1.50;99.90
17687;DHT22;8962;52.538;13.266;2024-01-11T10:31:02;-1.50;99.90
17687;DHT22;8962;52.538;13.266;2024-01-11T10:33:31;-1.50;99.90
17687;DHT22;8962;52.538;13.266;2024-01-11T10:36:00;-1.50;99.90
17687;DHT22;8962;52.538;13.266;2024-01-11T10:38:31;-1.50;99.90
17687;DHT22;8962;52.538;13.266;2024-01-11T10:41:05;-1.40;99.90
17687;DHT22;8962;52.538;13.266;2024-01-11T10:43:37;-1.40;99.90
17687;DHT22;8962;52.538;13.266;2024-01-11T10:46:04;-1.40;99.90
17687;DHT22;8962;52.538;13.266;2024-01-11T10:48:36;-1.30;99.90
17687;DHT22;8962;52.538;13.266;2024-01-11T10:51:08;-1.40;99.90
17687;DHT22;8962;52.538;13.266;2024-01-11T10:53:42;-1.40;99.90
17687;DHT22;8962;52.538;13.266;2024-01-11T10:56:11;-1.30;99.90
17687;DHT22;8962;52.538;13.266;2024-01-11T10:58:42;-1.20;99.90
17687;DHT22;8962;52.538;13.266;2024-01-11T11:01:11;-1.20;99.90
17687;DHT22;8962;52.538;13.266;2024-01-11T11:03:39;-1.10;99.90
17687;DHT22;8962;52.538;13.266;2024-01-11T11:06:09;-1.10;99.90
17687;DHT22;8962;52.538;13.266;2024-01-11T11:08:37;-1.00;99.90
17687;DHT22;8962;52.538;13.266;2024-01-11T11:11:05;-0.90;99.90
17687;DHT22;8962;52.538;13.266;2024-01-11T11:13:34;-0.80;99.90
17687;DHT22;8962;52.538;13.266;2024-01-11T11:16:03;-0.90;99.90
17687;DHT22;8962;52.538;13.266;2024-01-11T11:18:32;-0.90;99.90
17687;DHT22;8962;52.538;13.266;2024-01-11T11:21:01;-0.90;99.90
17687;DHT22;8962;52.538;13.266;2024-01-11T11:23:28;-0.90;99.90
17687;DHT22;8962;52.538;13.266;2024-01-11T11:25:55;-0.80;99.90
17687;DHT22;8962;52.538;13.266;2024-01-11T11:28:23;-0.80;99.90
17687;DHT22;8962;52.538;13.266;2024-01-11T11:30:52;-0.80;99.90
17687;DHT22;8962;52.538;13.266;2024-01-11T11:33:24;-0.90;99.90
17687;DHT22;8962;52.538;13.266;2024-01-11T11:35:53;-0.90;99.90
17687;DHT22;8962;52.538;13.266;2024-01-11T11:38:21;-0.90;99.90
17687;DHT22;8962;52.538;13.266;2024-01-11T11:40:50;-1.00;99.90
17687;DHT22;8962;52.538;13.266;2024-01-11T11:43:27;-1.00;99.90
17687;DHT22;8962;52.538;13.266;2024-01-11T11:45:56;-1.00;99.90
17687;DHT22;8962;52.538;13.266;2024-01-11T11:48:50;-1.00;99.90
17687;DHT22;8962;52.538;13.266;2024-01-11T11:51:21;-0.90;99.90
17687;DHT22;8962;52.538;13.266;2024-01-11T11:53:51;-0.90;99.90
17687;DHT22;8962;52.538;13.266;2024-01-11T11:56:20;-0.90;99.90
17687;DHT22;8962;52.538;13.266;2024-01-11T11:58:48;-0.80;99.90
17687;DHT22;8962;52.538;13.266;2024-01-11T12:01:18;-0.80;99.90
17687;DHT22;8962;52.538;13.266;2024-01-11T12:03:46;-0.90;99.90
17687;DHT22;8962;52.538;13.266;2024-01-11T12:06:18;-1.00;99.90
17687;DHT22;8962;52.538;13.266;2024-01-11T12:08:47;-0.80;99.90
17687;DHT22;8962;52.538;13.266;2024-01-11T12:11:16;-0.80;99.90
17687;DHT22;8962;52.538;13.266;2024-01-11T12:13:47;-0.80;99.90
17687;DHT22;8962;52.538;13.266;2024-01-11T12:16:21;-0.80;99.90
17687;DHT22;8962;52.538;13.266;2024-01-11T12:18:49;-0.80;99.90
17687;DHT22;8962;52.538;13.266;2024-01-11T12:21:21;-0.80;99.90
17687;DHT22;8962;52.538;13.266;2024-01-11T12:23:48;-0.70;99.90
17687;DHT22;8962;52.538;13.266;2024-01-11T12:26:15;-0.70;99.90
17687;DHT22;8962;52.538;13.266;2024-01-11T12:28:47;-0.70;99.90
17687;DHT22;8962;52.538;13.266;2024-01-11T12:31:16;-0.60;99.90
17687;DHT22;8962;52.538;13.266;2024-01-11T12:33:45;-0.60;99.90
17687;DHT22;8962;52.538;13.266;2024-01-11T12:36:12;-0.60;99.90
17687;DHT22;8962;52.538;13.266;2024-01-11T12:38:47;-0.60;99.90
17687;DHT22;8962;52.538;13.266;2024-01-11T12:41:15;-0.60;99.90
17687;DHT22;8962;52.538;13.266;2024-01-11T12:43:42;-0.50;99.90
17687;DHT22;8962;52.538;13.266;2024-01-11T12:46:09;-0.40;99.90
17687;DHT22;8962;52.538;13.266;2024-01-11T12:48:37;-0.40;99.90
17687;DHT22;8962;52.538;13.266;2024-01-11T12:51:04;-0.30;99.90
17687;DHT22;8962;52.538;13.266;2024-01-11T12:53:33;-0.30;99.90
17687;DHT22;8962;52.538;13.266;2024-01-11T12:56:06;-0.20;99.90
17687;DHT22;8962;52.538;13.266;2024-01-11T12:58:37;-0.20;99.90
17687;DHT22;8962;52.538;13.266;2024-01-11T13:01:05;-0.20;99.90
17687;DHT22;8962;52.538;13.266;2024-01-11T13:03:33;-0.10;99.90
17687;DHT22;8962;52.538;13.266;2024-01-11T13:06:02;-0.10;99.90
17687;DHT22;8962;52.538;13.266;2024-01-11T13:08:30;-0.10;99.90
17687;DHT22;8962;52.538;13.266;2024-01-11T13:10:57;-0.10;99.90
17687;DHT22;8962;52.538;13.266;2024-01-11T13:13:28;-0.20;99.90
17687;DHT22;8962;52.538;13.266;2024-01-11T13:15:56;-0.10;99.90
17687;DHT22;8962;52.538;13.266;2024-01-11T13:18:24;-0.10;99.90
17687;DHT22;8962;52.538;13.266;2024-01-11T13:20:51;-0.10;99.90
17687;DHT22;8962;52.538;13.266;2024-01-11T13:23:19;-0.20;99.90
17687;DHT22;8962;52.538;13.266;2024-01-11T13:25:48;-0.30;99.90
17687;DHT22;8962;52.538;13.266;2024-01-11T13:28:15;-0.20;99.90
17687;DHT22;8962;52.538;13.266;2024-01-11T13:30:46;-0.20;99.90
17687;DHT22;8962;52.538;13.266;2024-01-11T13:33:15;-0.20;99.90
17687;DHT22;8962;52.538;13.266;2024-01-11T13:35:43;-0.20;99.90
17687;DHT22;8962;52.538;13.266;2024-01-11T13:38:11;-0.20;99.90
17687;DHT22;8962;52.538;13.266;2024-01-11T13:40:39;-0.20;99.90
17687;DHT22;8962;52.538;13.266;2024-01-11T13:43:06;-0.30;99.90
17687;DHT22;8962;52.538;13.266;2024-01-11T13:45:33;-0.20;99.90
17687;DHT22;8962;52.538;13.266;2024-01-11T13:48:03;-0.30;99.90
17687;DHT22;8962;52.538;13.266;2024-01-11T13:50:31;-0.30;99.90
17687;DHT22;8962;52.538;13.266;2024-01-11T13:53:00;-0.20;99.90
17687;DHT22;8962;52.538;13.266;2024-01-11T13:55:30;-0.10;99.90
17687;DHT22;8962;52.538;13.266;2024-01-11T13:58:04;-0.10;99.90
17687;DHT22;8962;52.538;13.266;2024-01-11T14:00:31;-0.10;99.90
17687;DHT22;8962;52.538;13.266;2024-01-11T14:03:02;-0.10;99.90
17687;DHT22;8962;52.538;13.266;2024-01-11T14:05:34;-0.20;99.90
17687;DHT22;8962;52.538;13.266;2024-01-11T14:08:03;-0.30;99.90
17687;DHT22;8962;52.538;13.266;2024-01-11T14:10:32;-0.30;99.90
17687;DHT22;8962;52.538;13.266;2024-01-11T14:13:00;-0.30;99.90
17687;DHT22;8962;52.538;13.266;2024-01-11T14:15:28;-0.30;99.90
17687;DHT22;8962;52.538;13.266;2024-01-11T14:17:58;-0.30;99.90
17687;DHT22;8962;52.538;13.266;2024-01-11T14:20:27;-0.40;99.90
17687;DHT22;8962;52.538;13.266;2024-01-11T14:22:55;-0.30;99.90
17687;DHT22;8962;52.538;13.266;2024-01-11T14:25:23;-0.30;99.90
17687;DHT22;8962;52.538;13.266;2024-01-11T14:27:52;-0.30;99.90
17687;DHT22;8962;52.538;13.266;2024-01-11T14:30:20;-0.30;99.90
17687;DHT22;8962;52.538;13.266;2024-01-11T14:32:48;-0.30;99.90
17687;DHT22;8962;52.538;13.266;2024-01-11T14:35:15;-0.30;99.90
17687;DHT22;8962;52.538;13.266;2024-01-11T14:37:45;-0.30;99.90
17687;DHT22;8962;52.538;13.266;2024-01-11T14:40:12;-0.30;99.90
17687;DHT22;8962;52.538;13.266;2024-01-11T14:42:39;-0.30;99.90
17687;DHT22;8962;52.538;13.266;2024-01-11T14:45:07;-0.30;99.90
17687;DHT22;8962;52.538;13.266;2024-01-11T14:47:34;-0.20;99.90
17687;DHT22;8962;52.538;13.266;2024-01-11T14:50:02;-0.20;99.90
17687;DHT22;8962;52.538;13.266;2024-01-11T14:52:30;-0.30;99.90
17687;DHT22;8962;52.538;13.266;2024-01-11T14:54:59;-0.30;99.90
17687;DHT22;8962;52.538;13.266;2024-01-11T14:57:26;-0.30;99.90
17687;DHT22;8962;52.538;13.266;2024-01-11T14:59:53;-0.30;99.90
17687;DHT22;8962;52.538;13.266;2024-01-11T15:02:20;-0.20;99.90
17687;DHT22;8962;52.538;13.266;2024-01-11T15:04:48;-0.20;99.90
17687;DHT22;8962;52.538;13.266;2024-01-11T15:07:15;-0.30;99.90
17687;DHT22;8962;52.538;13.266;2024-01-11T15:09:45;-0.20;99.90
17687;DHT22;8962;52.538;13.266;2024-01-11T15:12:14;-0.20;99.90
17687;DHT22;8962;52.538;13.266;2024-01-11T15:14:41;-0.20;99.90
17687;DHT22;8962;52.538;13.266;2024-01-11T15:17:09;-0.20;99.90
17687;DHT22;8962;52.538;13.266;2024-01-11T15:19:36;-0.10;99.90
17687;DHT22;8962;52.538;13.266;2024-01-11T15:22:04;-0.10;99.90
17687;DHT22;8962;52.538;13.266;2024-01-11T15:24:34;-0.10;99.90
17687;DHT22;8962;52.538;13.266;2024-01-11T15:27:01;-0.20;99.90
17687;DHT22;8962;52.538;13.266;2024-01-11T15:29:30;-0.10;99.90
17687;DHT22;8962;52.538;13.266;2024-01-11T15:31:57;-0.10;99.90
17687;DHT22;8962;52.538;13.266;2024-01-11T15:34:25;-0.20;99.90
17687;DHT22;8962;52.538;13.266;2024-01-11T15:36:52;-0.20;99.90